Time;durP1;ratioP1;P1;durP2;ratioP2;P2;SDS_P1;SDS_P2;PMS_P1;PMS_P2;Temp;Humidity;BMP_temperature;BMP_pressure;BME280_temperature;BME280_humidity;BME280_pressure;Samples;Min_cycle;Max_cycle;Signal;HPM_P1;HPM_P2
2022/07/26 00:02:10;;;;;;;14.70;3.63;;;;;;;;;;5073297;28;20675;-77
2022/07/26 00:04:36;;;;;;;16.45;3.97;;;;;;;;;;5075823;28;20473;-77
2022/07/26 00:07:02;;;;;;;17.58;4.38;;;;;;;;;;5072419;28;20046;-76
2022/07/26 00:09:28;;;;;;;21.58;4.63;;;;;;;;;;5072713;28;20416;-75
2022/07/26 00:11:54;;;;;;;12.70;3.60;;;;;;;;;;5072673;28;20056;-77
2022/07/26 00:14:20;;;;;;;19.88;5.00;;;;;;;;;;5071704;28;20434;-77
2022/07/26 00:16:46;;;;;;;19.90;4.15;;;;;;;;;;5073620;28;20408;-76
2022/07/26 00:19:12;;;;;;;18.48;4.63;;;;;;;;;;5072751;28;20519;-77
2022/07/26 00:21:38;;;;;;;17.55;4.30;;;;;;;;;;5072931;28;20033;-76
2022/07/26 00:24:04;;;;;;;25.50;4.43;;;;;;;;;;5072974;28;20029;-76
2022/07/26 00:26:30;;;;;;;21.35;3.78;;;;;;;;;;5072494;28;20052;-77
2022/07/26 00:28:56;;;;;;;21.48;3.90;;;;;;;;;;5074036;28;20029;-76
2022/07/26 00:31:22;;;;;;;15.45;3.88;;;;;;;;;;5077048;28;20024;-75
2022/07/26 00:33:48;;;;;;;18.38;4.15;;;;;;;;;;5071685;28;20077;-79
2022/07/26 00:36:14;;;;;;;16.80;3.78;;;;;;;;;;5072072;28;20029;-77
2022/07/26 00:38:40;;;;;;;13.60;3.20;;;;;;;;;;5072163;28;20040;-77
2022/07/26 00:41:08;;;;;;;13.82;4.20;;;;;;;;;;5072797;28;20021;-76
2022/07/26 00:43:34;;;;;;;17.48;3.58;;;;;;;;;;5072522;28;20013;-76
2022/07/26 00:46:00;;;;;;;22.63;3.95;;;;;;;;;;5072187;28;20024;-76
2022/07/26 00:48:26;;;;;;;13.80;3.15;;;;;;;;;;5072018;28;20027;-77
2022/07/26 00:50:53;;;;;;;21.67;3.00;;;;;;;;;;5070874;28;20029;-75
2022/07/26 00:53:20;;;;;;;14.13;2.90;;;;;;;;;;5072464;28;20368;-75
2022/07/26 00:55:47;;;;;;;15.57;3.78;;;;;;;;;;5072684;28;20362;-77
2022/07/26 00:58:13;;;;;;;14.80;3.05;;;;;;;;;;5072629;28;20211;-76
2022/07/26 01:00:39;;;;;;;14.00;3.10;;;;;;;;;;5071202;28;20044;-75
2022/07/26 01:03:05;;;;;;;17.05;4.10;;;;;;;;;;5072042;28;20028;-75
2022/07/26 01:05:31;;;;;;;17.48;3.90;;;;;;;;;;5074207;28;20047;-76
2022/07/26 01:07:57;;;;;;;15.05;3.70;;;;;;;;;;5075970;28;20401;-76
2022/07/26 01:10:23;;;;;;;14.52;3.25;;;;;;;;;;5078402;28;20066;-76
2022/07/26 01:12:49;;;;;;;13.02;3.28;;;;;;;;;;5081286;28;20024;-77
2022/07/26 01:15:15;;;;;;;16.30;3.67;;;;;;;;;;5078901;28;20508;-76
2022/07/26 01:17:42;;;;;;;9.38;3.10;;;;;;;;;;5081168;28;20032;-76
2022/07/26 01:20:09;;;;;;;16.65;3.22;;;;;;;;;;5080090;28;20071;-77
2022/07/26 01:22:35;;;;;;;16.48;3.42;;;;;;;;;;5076676;28;20497;-77
2022/07/26 01:25:01;;;;;;;16.67;3.78;;;;;;;;;;5076670;28;20040;-76
2022/07/26 01:27:27;;;;;;;20.35;3.63;;;;;;;;;;5078641;28;20023;-77
2022/07/26 01:29:53;;;;;;;16.25;3.70;;;;;;;;;;5079322;28;20028;-76
2022/07/26 01:32:19;;;;;;;14.65;3.78;;;;;;;;;;5078159;28;20024;-75
2022/07/26 01:34:45;;;;;;;15.45;3.42;;;;;;;;;;5076643;28;20066;-78
2022/07/26 01:37:11;;;;;;;18.85;3.58;;;;;;;;;;5077143;28;20103;-75
2022/07/26 01:39:37;;;;;;;10.65;3.05;;;;;;;;;;5080566;28;20044;-75
2022/07/26 01:42:03;;;;;;;15.88;3.88;;;;;;;;;;5077355;28;20025;-77
2022/07/26 01:44:29;;;;;;;20.67;4.10;;;;;;;;;;5087438;28;20040;-77
2022/07/26 01:46:55;;;;;;;14.70;3.72;;;;;;;;;;5095621;28;20032;-76
2022/07/26 01:49:21;;;;;;;12.43;3.70;;;;;;;;;;5094288;28;20024;-75
2022/07/26 01:51:47;;;;;;;17.13;3.58;;;;;;;;;;5091260;28;20025;-75
2022/07/26 01:54:13;;;;;;;17.50;3.95;;;;;;;;;;5087351;28;20317;-76
2022/07/26 01:56:40;;;;;;;19.33;3.80;;;;;;;;;;5088168;28;20214;-74
2022/07/26 01:59:06;;;;;;;22.65;4.28;;;;;;;;;;5099040;28;20030;-74
2022/07/26 02:01:32;;;;;;;20.20;3.60;;;;;;;;;;5081180;28;20115;-76
2022/07/26 02:03:58;;;;;;;25.10;4.15;;;;;;;;;;5075687;28;20113;-76
2022/07/26 02:06:24;;;;;;;16.73;3.47;;;;;;;;;;5075251;28;20094;-74
2022/07/26 02:08:50;;;;;;;19.60;4.05;;;;;;;;;;5076468;28;20031;-77
2022/07/26 02:11:16;;;;;;;18.80;4.00;;;;;;;;;;5075461;28;20103;-77
2022/07/26 02:13:42;;;;;;;20.30;4.55;;;;;;;;;;5075082;28;20021;-77
2022/07/26 02:16:09;;;;;;;21.17;4.32;;;;;;;;;;5073830;28;20020;-77
2022/07/26 02:18:41;;;;;;;20.15;4.85;;;;;;;;;;5074197;28;20077;-77
2022/07/26 02:21:08;;;;;;;17.35;4.25;;;;;;;;;;5074463;28;20095;-77
2022/07/26 02:23:34;;;;;;;25.45;4.45;;;;;;;;;;5074968;28;20316;-77
2022/07/26 02:26:00;;;;;;;27.63;4.53;;;;;;;;;;5074200;28;20043;-75
2022/07/26 02:28:27;;;;;;;24.17;4.65;;;;;;;;;;5074019;28;20035;-76
2022/07/26 02:30:53;;;;;;;23.33;3.85;;;;;;;;;;5073975;28;20056;-77
2022/07/26 02:33:19;;;;;;;17.67;4.10;;;;;;;;;;5074833;28;20074;-77
2022/07/26 02:35:45;;;;;;;19.75;3.90;;;;;;;;;;5074732;28;20131;-75
2022/07/26 02:38:12;;;;;;;19.73;4.00;;;;;;;;;;5075868;28;20025;-76
2022/07/26 02:40:39;;;;;;;20.30;4.07;;;;;;;;;;5072872;28;20025;-76
2022/07/26 02:43:05;;;;;;;19.02;3.75;;;;;;;;;;5073657;28;20056;-75
2022/07/26 02:45:31;;;;;;;22.65;3.97;;;;;;;;;;5073439;28;20055;-75
2022/07/26 02:47:58;;;;;;;18.77;4.07;;;;;;;;;;5073721;28;20464;-77
2022/07/26 02:50:24;;;;;;;21.35;3.97;;;;;;;;;;5073448;28;20381;-76
2022/07/26 02:52:51;;;;;;;18.63;4.10;;;;;;;;;;5074819;28;20021;-77
2022/07/26 02:55:19;;;;;;;26.10;4.10;;;;;;;;;;5079491;28;20031;-77
2022/07/26 02:57:45;;;;;;;19.10;4.10;;;;;;;;;;5078943;28;20020;-77
2022/07/26 03:00:12;;;;;;;18.88;3.30;;;;;;;;;;5079208;28;20350;-76
2022/07/26 03:02:38;;;;;;;19.42;4.32;;;;;;;;;;5081427;28;20489;-76
2022/07/26 03:05:05;;;;;;;17.75;4.28;;;;;;;;;;5077120;28;20036;-76
2022/07/26 03:07:31;;;;;;;22.42;4.50;;;;;;;;;;5075406;28;20478;-77
2022/07/26 03:09:57;;;;;;;26.50;5.50;;;;;;;;;;5076740;28;20035;-76
2022/07/26 03:12:24;;;;;;;18.65;4.07;;;;;;;;;;5074593;28;20025;-76
2022/07/26 03:14:50;;;;;;;20.73;4.18;;;;;;;;;;5074017;28;20036;-78
2022/07/26 03:17:16;;;;;;;20.88;4.40;;;;;;;;;;5072629;28;20040;-76
2022/07/26 03:19:42;;;;;;;18.13;4.22;;;;;;;;;;5075105;28;20047;-76
2022/07/26 03:22:09;;;;;;;23.08;5.95;;;;;;;;;;5074599;28;20385;-77
2022/07/26 03:24:35;;;;;;;24.10;4.53;;;;;;;;;;5080454;28;20051;-78
2022/07/26 03:27:01;;;;;;;22.65;4.18;;;;;;;;;;5082316;28;20338;-75
2022/07/26 03:29:27;;;;;;;26.70;4.78;;;;;;;;;;5088205;28;20029;-75
2022/07/26 03:31:53;;;;;;;23.75;4.10;;;;;;;;;;5080824;28;20028;-76
2022/07/26 03:34:19;;;;;;;20.10;4.00;;;;;;;;;;5080716;28;20029;-77
2022/07/26 03:36:45;;;;;;;22.30;4.03;;;;;;;;;;5083535;28;20055;-76
2022/07/26 03:39:11;;;;;;;22.58;5.07;;;;;;;;;;5080611;28;20101;-76
2022/07/26 03:41:37;;;;;;;21.92;4.25;;;;;;;;;;5083864;28;20076;-76
2022/07/26 03:44:03;;;;;;;24.83;3.63;;;;;;;;;;5076049;28;20449;-77
2022/07/26 03:46:29;;;;;;;40.90;5.22;;;;;;;;;;5073746;28;20103;-76
2022/07/26 03:48:55;;;;;;;20.08;4.00;;;;;;;;;;5073761;28;20052;-77
2022/07/26 03:51:22;;;;;;;20.10;3.80;;;;;;;;;;5073640;28;20032;-76
2022/07/26 03:53:48;;;;;;;25.75;4.50;;;;;;;;;;5074765;28;20021;-76
2022/07/26 03:56:33;;;;;;;27.00;4.82;;;;;;;;;;5073236;28;20097;-77
2022/07/26 03:59:08;;;;;;;25.50;4.63;;;;;;;;;;5073887;28;20021;-76
2022/07/26 04:01:35;;;;;;;27.42;4.43;;;;;;;;;;5075439;28;20477;-77
2022/07/26 04:04:01;;;;;;;23.33;3.83;;;;;;;;;;5074497;28;20479;-76
2022/07/26 04:06:27;;;;;;;27.23;5.00;;;;;;;;;;5074967;28;20033;-78
2022/07/26 04:08:53;;;;;;;28.88;5.45;;;;;;;;;;5074593;28;20070;-77
2022/07/26 04:11:19;;;;;;;24.02;4.55;;;;;;;;;;5073793;28;20366;-78
2022/07/26 04:13:45;;;;;;;17.52;3.80;;;;;;;;;;5082067;28;20080;-74
2022/07/26 04:16:11;;;;;;;16.08;3.30;;;;;;;;;;5095797;28;20047;-75
2022/07/26 04:18:37;;;;;;;19.73;3.47;;;;;;;;;;5096167;28;20021;-76
2022/07/26 04:21:03;;;;;;;14.10;2.92;;;;;;;;;;5095396;28;20028;-75
2022/07/26 04:23:29;;;;;;;11.50;3.10;;;;;;;;;;5093400;28;20033;-75
2022/07/26 04:25:55;;;;;;;16.05;3.60;;;;;;;;;;5088880;28;20031;-77
2022/07/26 04:28:22;;;;;;;16.02;4.13;;;;;;;;;;5073300;28;20082;-76
2022/07/26 04:30:48;;;;;;;12.13;3.92;;;;;;;;;;5075662;28;20024;-76
2022/07/26 04:33:13;;;;;;;12.20;3.05;;;;;;;;;;5075316;28;20031;-76
2022/07/26 04:35:40;;;;;;;12.60;3.00;;;;;;;;;;5074729;28;20032;-77
2022/07/26 04:38:06;;;;;;;14.10;3.33;;;;;;;;;;5073307;28;20066;-78
2022/07/26 04:40:32;;;;;;;12.18;3.03;;;;;;;;;;5076551;28;20024;-76
2022/07/26 04:42:59;;;;;;;13.65;3.28;;;;;;;;;;5077638;28;20028;-76
2022/07/26 04:45:25;;;;;;;14.65;3.25;;;;;;;;;;5080677;28;20029;-77
2022/07/26 04:47:51;;;;;;;10.70;2.83;;;;;;;;;;5082722;28;20421;-77
2022/07/26 04:50:21;;;;;;;9.48;2.97;;;;;;;;;;5081967;28;20021;-79
2022/07/26 04:52:48;;;;;;;11.77;2.97;;;;;;;;;;5079125;28;20017;-78
2022/07/26 04:55:14;;;;;;;8.55;2.85;;;;;;;;;;5079723;28;20082;-78
2022/07/26 04:57:40;;;;;;;8.27;2.80;;;;;;;;;;5078394;28;20107;-77
2022/07/26 05:00:07;;;;;;;10.75;3.20;;;;;;;;;;5076891;28;20063;-76
2022/07/26 05:02:33;;;;;;;12.02;3.30;;;;;;;;;;5080155;28;20072;-77
2022/07/26 05:04:59;;;;;;;10.95;2.80;;;;;;;;;;5077056;28;20474;-77
2022/07/26 05:07:25;;;;;;;11.23;3.28;;;;;;;;;;5076286;28;20028;-77
2022/07/26 05:09:51;;;;;;;7.32;2.50;;;;;;;;;;5075847;28;20419;-76
2022/07/26 05:12:17;;;;;;;6.85;2.80;;;;;;;;;;5076170;28;20074;-77
2022/07/26 05:14:43;;;;;;;5.40;2.67;;;;;;;;;;5076804;28;20029;-78
2022/07/26 05:17:10;;;;;;;7.13;2.70;;;;;;;;;;5075566;28;20425;-78
2022/07/26 05:19:36;;;;;;;7.38;2.72;;;;;;;;;;5076064;28;20421;-78
2022/07/26 05:22:02;;;;;;;6.82;2.35;;;;;;;;;;5079676;28;20021;-76
2022/07/26 05:24:28;;;;;;;11.75;3.50;;;;;;;;;;5077067;28;20031;-77
2022/07/26 05:26:54;;;;;;;10.30;2.80;;;;;;;;;;5080273;28;20048;-78
2022/07/26 05:29:19;;;;;;;6.43;2.70;;;;;;;;;;5078936;28;20032;-76
2022/07/26 05:31:45;;;;;;;5.65;2.90;;;;;;;;;;5085047;28;20025;-74
2022/07/26 05:34:13;;;;;;;8.77;4.10;;;;;;;;;;5099360;28;20059;-76
2022/07/26 05:36:39;;;;;;;7.40;2.78;;;;;;;;;;5097672;28;20023;-75
2022/07/26 05:39:05;;;;;;;6.00;2.85;;;;;;;;;;5097200;28;20012;-75
2022/07/26 05:41:31;;;;;;;9.80;3.15;;;;;;;;;;5098208;28;20024;-75
2022/07/26 05:43:57;;;;;;;7.57;2.88;;;;;;;;;;5097351;28;20021;-74
2022/07/26 05:46:23;;;;;;;7.47;3.03;;;;;;;;;;5096091;28;20040;-74
2022/07/26 05:48:49;;;;;;;5.65;2.83;;;;;;;;;;5094064;28;20037;-73
2022/07/26 05:51:15;;;;;;;10.98;3.00;;;;;;;;;;5090377;28;20071;-77
2022/07/26 05:53:41;;;;;;;8.32;3.35;;;;;;;;;;5092937;28;20029;-75
2022/07/26 05:56:07;;;;;;;9.68;3.30;;;;;;;;;;5092172;28;20037;-75
2022/07/26 05:58:33;;;;;;;12.65;3.83;;;;;;;;;;5092745;28;20454;-76
2022/07/26 06:00:59;;;;;;;12.25;3.40;;;;;;;;;;5086383;28;20028;-76
2022/07/26 06:03:25;;;;;;;13.23;3.63;;;;;;;;;;5084766;28;20033;-74
2022/07/26 06:05:53;;;;;;;12.55;3.40;;;;;;;;;;5078153;28;20391;-75
2022/07/26 06:08:19;;;;;;;12.25;3.53;;;;;;;;;;5077965;28;20032;-74
2022/07/26 06:10:46;;;;;;;10.27;3.30;;;;;;;;;;5077458;28;20035;-74
2022/07/26 06:13:12;;;;;;;14.73;4.07;;;;;;;;;;5076149;28;20024;-75
2022/07/26 06:15:38;;;;;;;11.85;3.40;;;;;;;;;;5077804;28;20032;-76
2022/07/26 06:18:04;;;;;;;15.82;3.80;;;;;;;;;;5076045;28;20028;-75
2022/07/26 06:20:31;;;;;;;5.88;2.83;;;;;;;;;;5074813;28;20024;-73
2022/07/26 06:22:57;;;;;;;15.40;3.67;;;;;;;;;;5074761;28;20064;-74
2022/07/26 06:25:23;;;;;;;10.75;2.97;;;;;;;;;;5075204;28;20107;-77
2022/07/26 06:27:49;;;;;;;15.45;3.30;;;;;;;;;;5073654;28;20078;-75
2022/07/26 06:30:15;;;;;;;10.45;2.60;;;;;;;;;;5073853;28;20029;-75
2022/07/26 06:32:43;;;;;;;9.95;2.80;;;;;;;;;;5075147;28;20036;-76
2022/07/26 06:35:09;;;;;;;22.73;8.02;;;;;;;;;;5076912;28;20028;-75
2022/07/26 06:37:38;;;;;;;12.93;2.97;;;;;;;;;;5075117;28;20024;-76
2022/07/26 06:40:05;;;;;;;10.52;2.88;;;;;;;;;;5080531;28;20087;-75
2022/07/26 06:42:32;;;;;;;12.88;2.50;;;;;;;;;;5078484;28;20064;-75
2022/07/26 06:44:58;;;;;;;13.48;2.25;;;;;;;;;;5093228;28;20024;-75
2022/07/26 06:47:24;;;;;;;15.25;2.33;;;;;;;;;;5097448;28;20013;-77
2022/07/26 06:49:50;;;;;;;8.10;2.13;;;;;;;;;;5096289;28;20039;-77
2022/07/26 06:52:16;;;;;;;11.55;1.90;;;;;;;;;;5097142;28;20034;-76
2022/07/26 06:54:42;;;;;;;8.32;1.80;;;;;;;;;;5095862;28;20020;-76
2022/07/26 06:57:08;;;;;;;13.82;2.50;;;;;;;;;;5082416;28;20025;-77
2022/07/26 06:59:34;;;;;;;9.98;1.67;;;;;;;;;;5073288;28;20024;-77
2022/07/26 07:02:03;;;;;;;8.82;3.67;;;;;;;;;;5074816;28;20024;-78
2022/07/26 07:04:29;;;;;;;9.00;1.85;;;;;;;;;;5094789;28;20009;-78
2022/07/26 07:06:56;;;;;;;8.95;2.08;;;;;;;;;;5088402;28;20027;-76
2022/07/26 07:09:23;;;;;;;8.30;2.13;;;;;;;;;;5076962;28;20024;-76
2022/07/26 07:11:49;;;;;;;11.23;2.03;;;;;;;;;;5076730;28;20028;-75
2022/07/26 07:14:15;;;;;;;10.23;1.63;;;;;;;;;;5075333;28;20031;-76
2022/07/26 07:16:41;;;;;;;9.23;1.95;;;;;;;;;;5073932;28;20516;-76
2022/07/26 07:19:07;;;;;;;13.35;5.65;;;;;;;;;;5074682;28;20029;-76
2022/07/26 07:21:33;;;;;;;13.57;1.73;;;;;;;;;;5074643;28;20082;-76
2022/07/26 07:23:59;;;;;;;7.35;1.90;;;;;;;;;;5073256;28;20074;-74
2022/07/26 07:26:25;;;;;;;8.80;1.40;;;;;;;;;;5073304;28;20066;-76
2022/07/26 07:28:51;;;;;;;8.45;1.50;;;;;;;;;;5075314;28;20041;-75
2022/07/26 07:31:17;;;;;;;11.45;1.70;;;;;;;;;;5073996;28;20078;-76
2022/07/26 07:33:43;;;;;;;12.45;1.50;;;;;;;;;;5073204;28;20034;-75
2022/07/26 07:36:09;;;;;;;9.07;1.90;;;;;;;;;;5070864;28;20016;-75
2022/07/26 07:38:35;;;;;;;6.35;1.42;;;;;;;;;;5073709;28;20078;-76
2022/07/26 07:41:01;;;;;;;8.88;1.50;;;;;;;;;;5073620;28;20029;-75
2022/07/26 07:43:27;;;;;;;9.40;2.30;;;;;;;;;;5074362;28;20029;-77
2022/07/26 07:45:53;;;;;;;12.98;3.92;;;;;;;;;;5072392;28;20067;-76
2022/07/26 07:48:19;;;;;;;11.30;2.25;;;;;;;;;;5071730;28;20035;-76
2022/07/26 07:50:45;;;;;;;30.08;7.90;;;;;;;;;;5073032;28;20103;-76
2022/07/26 07:53:11;;;;;;;22.52;7.22;;;;;;;;;;5072839;28;20214;-76
2022/07/26 07:55:37;;;;;;;26.23;9.90;;;;;;;;;;5072797;28;20415;-75
2022/07/26 07:58:02;;;;;;;16.70;4.30;;;;;;;;;;5073788;28;20473;-78
2022/07/26 08:00:28;;;;;;;14.90;4.63;;;;;;;;;;5072804;28;20397;-78
2022/07/26 08:02:54;;;;;;;18.42;5.78;;;;;;;;;;5072814;28;20021;-77
2022/07/26 08:05:20;;;;;;;33.42;11.68;;;;;;;;;;5072461;28;20486;-76
2022/07/26 08:07:46;;;;;;;9.82;2.42;;;;;;;;;;5071974;28;20024;-76
2022/07/26 08:10:12;;;;;;;16.08;4.68;;;;;;;;;;5073083;28;20067;-76
2022/07/26 08:12:38;;;;;;;45.95;12.52;;;;;;;;;;5072662;28;20073;-76
2022/07/26 08:15:05;;;;;;;10.88;1.98;;;;;;;;;;5075281;28;20054;-74
2022/07/26 08:17:31;;;;;;;17.90;6.03;;;;;;;;;;5079751;28;20043;-79
2022/07/26 08:19:57;;;;;;;8.85;1.58;;;;;;;;;;5081281;28;20398;-75
2022/07/26 08:22:23;;;;;;;14.60;3.55;;;;;;;;;;5080552;28;20035;-76
2022/07/26 08:24:49;;;;;;;8.93;1.60;;;;;;;;;;5079740;28;20028;-77
2022/07/26 08:27:15;;;;;;;9.60;2.33;;;;;;;;;;5079612;28;20033;-77
2022/07/26 08:29:40;;;;;;;14.48;3.38;;;;;;;;;;5077858;28;20483;-78
2022/07/26 08:32:06;;;;;;;7.35;2.08;;;;;;;;;;5079242;28;20074;-75
2022/07/26 08:34:33;;;;;;;8.43;2.20;;;;;;;;;;5079233;28;20029;-76
2022/07/26 08:36:58;;;;;;;7.82;2.10;;;;;;;;;;5079802;28;20028;-75
2022/07/26 08:39:24;;;;;;;6.40;2.05;;;;;;;;;;5079477;28;20032;-79
2022/07/26 08:41:50;;;;;;;9.45;1.60;;;;;;;;;;5081063;28;20028;-77
2022/07/26 08:44:16;;;;;;;6.63;1.27;;;;;;;;;;5084343;28;20024;-76
2022/07/26 08:46:42;;;;;;;5.75;1.33;;;;;;;;;;5082499;28;20128;-79
2022/07/26 08:49:09;;;;;;;5.65;1.30;;;;;;;;;;5080735;28;20078;-80
2022/07/26 08:51:38;;;;;;;6.82;1.27;;;;;;;;;;5079169;28;20070;-75
2022/07/26 08:54:04;;;;;;;8.73;1.50;;;;;;;;;;5077706;28;20120;-76
2022/07/26 08:56:31;;;;;;;4.85;1.00;;;;;;;;;;5079100;28;20035;-77
2022/07/26 08:58:56;;;;;;;13.77;1.67;;;;;;;;;;5079092;28;20436;-75
2022/07/26 09:01:22;;;;;;;12.65;1.20;;;;;;;;;;5080191;28;20016;-76
2022/07/26 09:03:48;;;;;;;9.30;1.30;;;;;;;;;;5078500;28;20052;-78
2022/07/26 09:06:18;;;;;;;10.30;1.63;;;;;;;;;;5078185;28;20052;-75
2022/07/26 09:08:46;;;;;;;9.32;1.38;;;;;;;;;;5079017;28;20396;-78
2022/07/26 09:11:25;;;;;;;7.07;1.58;;;;;;;;;;5078305;28;20021;-76
2022/07/26 09:13:52;;;;;;;9.60;1.73;;;;;;;;;;5083369;28;20052;-76
2022/07/26 09:16:18;;;;;;;7.05;1.80;;;;;;;;;;5090052;28;20035;-74
2022/07/26 09:18:44;;;;;;;8.88;1.77;;;;;;;;;;5092458;28;20295;-75
2022/07/26 09:21:33;;;;;;;5.82;1.55;;;;;;;;;;5098372;28;20041;-76
2022/07/26 09:23:59;;;;;;;8.70;1.60;;;;;;;;;;5099333;28;20032;-79
2022/07/26 09:26:25;;;;;;;8.02;1.45;;;;;;;;;;5081126;28;20074;-77
2022/07/26 09:29:02;;;;;;;10.77;1.40;;;;;;;;;;5077227;28;20378;-78
2022/07/26 09:31:28;;;;;;;10.20;1.70;;;;;;;;;;5076908;28;20020;-76
2022/07/26 09:33:54;;;;;;;9.85;1.30;;;;;;;;;;5077002;28;20389;-76
2022/07/26 09:36:20;;;;;;;4.68;1.30;;;;;;;;;;5074658;28;20458;-76
2022/07/26 09:38:48;;;;;;;10.25;1.33;;;;;;;;;;5076055;28;20017;-75
2022/07/26 09:41:26;;;;;;;8.00;1.63;;;;;;;;;;5077726;28;20017;-77
2022/07/26 09:43:53;;;;;;;10.18;1.40;;;;;;;;;;5077314;28;20520;-77
2022/07/26 09:46:19;;;;;;;12.77;1.33;;;;;;;;;;5075956;28;20043;-78
2022/07/26 09:48:45;;;;;;;10.32;1.45;;;;;;;;;;5074953;28;20020;-76
2022/07/26 09:51:11;;;;;;;10.00;1.45;;;;;;;;;;5074080;28;20032;-75
2022/07/26 09:53:44;;;;;;;8.20;1.27;;;;;;;;;;5076265;28;20024;-75
2022/07/26 09:56:11;;;;;;;10.85;2.17;;;;;;;;;;5077031;28;20035;-77
2022/07/26 09:58:37;;;;;;;4.18;1.20;;;;;;;;;;5076751;28;20110;-75
2022/07/26 10:01:07;;;;;;;11.02;3.35;;;;;;;;;;5079672;28;20437;-76
2022/07/26 10:03:33;;;;;;;8.88;1.77;;;;;;;;;;5082013;28;20029;-76
2022/07/26 10:06:00;;;;;;;10.35;1.50;;;;;;;;;;5076713;28;20318;-77
2022/07/26 10:08:26;;;;;;;7.30;1.40;;;;;;;;;;5075500;28;20023;-76
2022/07/26 10:10:54;;;;;;;8.10;1.42;;;;;;;;;;5074043;28;20021;-77
2022/07/26 10:13:21;;;;;;;7.60;1.27;;;;;;;;;;5074610;28;20020;-78
2022/07/26 10:15:48;;;;;;;4.45;1.08;;;;;;;;;;5074372;28;20032;-76
2022/07/26 10:18:42;;;;;;;5.05;1.00;;;;;;;;;;5072627;28;20444;-78
2022/07/26 10:21:22;;;;;;;7.80;1.40;;;;;;;;;;5074263;28;20025;-78
2022/07/26 10:23:51;;;;;;;9.73;1.45;;;;;;;;;;5074041;28;20021;-77
2022/07/26 10:26:32;;;;;;;8.48;1.25;;;;;;;;;;5073633;28;20025;-75
2022/07/26 10:29:13;;;;;;;8.70;1.67;;;;;;;;;;5077758;28;20493;-75
2022/07/26 10:31:39;;;;;;;8.00;1.70;;;;;;;;;;5081403;28;20028;-76
2022/07/26 10:34:05;;;;;;;6.88;1.83;;;;;;;;;;5088234;28;20048;-76
2022/07/26 10:36:33;;;;;;;6.45;1.48;;;;;;;;;;5089966;28;20029;-76
2022/07/26 10:39:04;;;;;;;6.75;1.08;;;;;;;;;;5077288;28;20016;-77
2022/07/26 10:41:32;;;;;;;9.93;1.63;;;;;;;;;;5079076;28;20076;-75
2022/07/26 10:44:10;;;;;;;9.27;1.38;;;;;;;;;;5078312;28;20059;-77
2022/07/26 10:46:36;;;;;;;12.25;1.75;;;;;;;;;;5075414;28;20033;-76
2022/07/26 10:49:03;;;;;;;11.00;1.55;;;;;;;;;;5074959;28;20030;-76
2022/07/26 10:51:52;;;;;;;9.27;1.70;;;;;;;;;;5075473;28;20481;-77
2022/07/26 10:54:18;;;;;;;11.50;2.22;;;;;;;;;;5074789;28;20039;-76
2022/07/26 10:56:44;;;;;;;9.23;1.60;;;;;;;;;;5072818;28;20028;-77
2022/07/26 10:59:10;;;;;;;7.82;1.45;;;;;;;;;;5074532;28;20081;-76
2022/07/26 11:01:41;;;;;;;8.32;1.83;;;;;;;;;;5074382;28;20020;-76
2022/07/26 11:04:19;;;;;;;10.40;2.08;;;;;;;;;;5075580;28;20099;-77
2022/07/26 11:06:45;;;;;;;12.18;2.20;;;;;;;;;;5073713;28;20377;-75
2022/07/26 11:09:12;;;;;;;14.85;2.17;;;;;;;;;;5073321;28;20477;-76
2022/07/26 11:11:38;;;;;;;14.23;2.47;;;;;;;;;;5073765;28;20390;-78
2022/07/26 11:14:05;;;;;;;12.90;2.30;;;;;;;;;;5074687;28;20359;-76
2022/07/26 11:16:36;;;;;;;14.90;2.75;;;;;;;;;;5073792;28;20223;-77
2022/07/26 11:19:11;;;;;;;13.05;2.42;;;;;;;;;;5074062;28;20020;-76
2022/07/26 11:21:37;;;;;;;13.93;2.65;;;;;;;;;;5072822;28;20020;-77
2022/07/26 11:24:03;;;;;;;12.45;2.28;;;;;;;;;;5073840;28;20020;-75
2022/07/26 11:26:33;;;;;;;8.55;2.00;;;;;;;;;;5072206;28;20054;-75
2022/07/26 11:29:00;;;;;;;12.45;1.92;;;;;;;;;;5071945;28;20386;-76
2022/07/26 11:31:37;;;;;;;18.10;3.13;;;;;;;;;;5074047;28;20016;-78
2022/07/26 11:34:04;;;;;;;16.38;2.55;;;;;;;;;;5074524;28;20020;-78
2022/07/26 11:36:31;;;;;;;15.85;2.45;;;;;;;;;;5074585;28;20024;-79
2022/07/26 11:38:58;;;;;;;16.85;2.58;;;;;;;;;;5074004;28;20077;-77
2022/07/26 11:41:25;;;;;;;16.58;3.25;;;;;;;;;;5073069;28;20056;-78
2022/07/26 11:43:52;;;;;;;13.85;3.85;;;;;;;;;;5075151;28;20033;-77
2022/07/26 11:46:19;;;;;;;16.80;2.67;;;;;;;;;;5075074;28;20469;-78
2022/07/26 11:48:48;;;;;;;13.80;2.67;;;;;;;;;;5073977;28;20029;-79
2022/07/26 11:51:16;;;;;;;18.00;3.30;;;;;;;;;;5072992;28;20044;-78
2022/07/26 11:53:42;;;;;;;9.20;2.38;;;;;;;;;;5072916;28;20384;-77
2022/07/26 11:56:09;;;;;;;9.95;2.03;;;;;;;;;;5073042;28;20024;-77
2022/07/26 11:58:35;;;;;;;12.13;2.05;;;;;;;;;;5073585;28;20021;-78
2022/07/26 12:01:01;;;;;;;9.70;2.47;;;;;;;;;;5072080;28;20036;-77
2022/07/26 12:03:27;;;;;;;14.63;3.78;;;;;;;;;;5072185;28;20507;-78
2022/07/26 12:06:07;;;;;;;13.38;2.60;;;;;;;;;;5072552;28;20032;-79
2022/07/26 12:08:45;;;;;;;13.23;2.83;;;;;;;;;;5072695;28;20035;-76
2022/07/26 12:11:11;;;;;;;11.02;2.28;;;;;;;;;;5082622;28;20021;-79
2022/07/26 12:13:57;;;;;;;10.43;2.50;;;;;;;;;;5078608;28;20431;-78
2022/07/26 12:16:42;;;;;;;8.32;2.25;;;;;;;;;;5070095;28;20117;-78
2022/07/26 12:19:08;;;;;;;;;;;;;;;;;;5075796;28;20028;-76
2022/07/26 12:21:38;;;;;;;13.63;1.77;;;;;;;;;;5075747;28;19914;-78
2022/07/26 12:24:04;;;;;;;13.55;2.30;;;;;;;;;;5074877;28;20021;-77
2022/07/26 12:26:29;;;;;;;9.25;2.45;;;;;;;;;;5077255;28;20482;-79
2022/07/26 12:28:57;;;;;;;9.48;2.10;;;;;;;;;;5078284;28;20123;-78
2022/07/26 12:31:23;;;;;;;15.45;2.30;;;;;;;;;;5075018;28;20027;-76
2022/07/26 12:33:49;;;;;;;12.10;2.30;;;;;;;;;;5072905;28;20017;-77
2022/07/26 12:36:19;;;;;;;13.23;2.90;;;;;;;;;;5079179;28;20033;-78
2022/07/26 12:38:45;;;;;;;17.88;2.42;;;;;;;;;;5071856;28;20020;-77
2022/07/26 12:41:11;;;;;;;11.02;2.25;;;;;;;;;;5075957;28;20233;-79
2022/07/26 12:43:40;;;;;;;10.85;2.22;;;;;;;;;;5076893;28;20086;-77
2022/07/26 12:46:06;;;;;;;15.98;2.20;;;;;;;;;;5079562;28;20025;-78
2022/07/26 12:48:32;;;;;;;16.02;2.80;;;;;;;;;;5082604;28;20079;-78
2022/07/26 12:50:58;;;;;;;19.55;2.85;;;;;;;;;;5080459;28;20478;-78
2022/07/26 12:53:24;;;;;;;13.13;2.20;;;;;;;;;;5078475;28;20099;-80
2022/07/26 12:55:50;;;;;;;11.07;2.13;;;;;;;;;;5077032;28;20128;-78
2022/07/26 12:58:16;;;;;;;13.02;2.20;;;;;;;;;;5076255;28;20028;-79
2022/07/26 13:00:42;;;;;;;13.00;2.72;;;;;;;;;;5077511;28;20032;-77
2022/07/26 13:03:08;;;;;;;13.45;2.05;;;;;;;;;;5080088;28;20036;-78
2022/07/26 13:05:34;;;;;;;15.13;2.70;;;;;;;;;;5082885;28;20165;-77
2022/07/26 13:08:00;;;;;;;15.15;2.17;;;;;;;;;;5085324;28;20025;-76
2022/07/26 13:10:26;;;;;;;12.70;2.55;;;;;;;;;;5082032;28;20107;-77
2022/07/26 13:12:52;;;;;;;13.68;2.15;;;;;;;;;;5085572;28;20024;-77
2022/07/26 13:15:18;;;;;;;13.75;3.00;;;;;;;;;;5084121;28;20070;-75
2022/07/26 13:17:44;;;;;;;11.35;2.15;;;;;;;;;;5092688;28;20036;-76
2022/07/26 13:20:10;;;;;;;9.85;1.88;;;;;;;;;;5083499;28;20113;-79
2022/07/26 13:22:36;;;;;;;12.98;1.75;;;;;;;;;;5079541;28;20478;-78
2022/07/26 13:25:02;;;;;;;8.75;1.83;;;;;;;;;;5077668;28;20146;-78
2022/07/26 13:27:28;;;;;;;13.93;2.10;;;;;;;;;;5078671;28;20048;-77
2022/07/26 13:29:54;;;;;;;14.88;2.50;;;;;;;;;;5079790;28;20029;-78
2022/07/26 13:32:20;;;;;;;15.38;2.67;;;;;;;;;;5081788;28;20028;-79
2022/07/26 13:34:46;;;;;;;12.50;2.45;;;;;;;;;;5081638;28;20063;-78
2022/07/26 13:37:12;;;;;;;14.23;2.65;;;;;;;;;;5077524;28;20035;-77
2022/07/26 13:39:38;;;;;;;14.57;2.50;;;;;;;;;;5078963;28;20037;-78
2022/07/26 13:42:04;;;;;;;12.88;2.10;;;;;;;;;;5076550;28;20035;-77
2022/07/26 13:44:30;;;;;;;12.90;2.10;;;;;;;;;;5083678;28;20063;-77
2022/07/26 13:46:56;;;;;;;15.60;2.40;;;;;;;;;;5089549;28;20023;-77
2022/07/26 13:49:22;;;;;;;9.40;2.20;;;;;;;;;;5085583;28;20028;-77
2022/07/26 13:51:57;;;;;;;9.88;2.78;;;;;;;;;;5083878;28;20047;-77
2022/07/26 13:54:33;;;;;;;8.88;1.95;;;;;;;;;;5083289;28;20592;-77
2022/07/26 13:57:00;;;;;;;8.23;2.25;;;;;;;;;;5076899;28;20029;-76
2022/07/26 13:59:27;;;;;;;9.13;1.65;;;;;;;;;;5080168;28;20035;-76
2022/07/26 14:01:53;;;;;;;7.88;2.15;;;;;;;;;;5074756;28;20036;-76
2022/07/26 14:04:20;;;;;;;11.38;2.28;;;;;;;;;;5074757;28;20097;-74
2022/07/26 14:06:46;;;;;;;12.27;2.22;;;;;;;;;;5070448;28;20573;-77
2022/07/26 14:09:12;;;;;;;11.73;2.92;;;;;;;;;;5069850;28;20028;-76
2022/07/26 14:11:38;;;;;;;14.10;2.63;;;;;;;;;;5084044;28;20032;-73
2022/07/26 14:14:05;;;;;;;8.63;2.00;;;;;;;;;;5075721;28;20108;-74
2022/07/26 14:16:31;;;;;;;9.68;1.73;;;;;;;;;;5077972;28;20029;-74
2022/07/26 14:18:57;;;;;;;10.20;1.90;;;;;;;;;;5086331;28;20016;-74
2022/07/26 14:21:24;;;;;;;10.98;1.90;;;;;;;;;;5096694;28;20012;-75
2022/07/26 14:23:50;;;;;;;10.20;2.45;;;;;;;;;;5077493;28;20024;-74
2022/07/26 14:26:16;;;;;;;10.60;1.83;;;;;;;;;;5072393;28;20028;-75
2022/07/26 14:28:43;;;;;;;9.82;2.28;;;;;;;;;;5074874;28;20032;-74
2022/07/26 14:31:09;;;;;;;12.65;3.25;;;;;;;;;;5074585;28;20025;-75
2022/07/26 14:33:35;;;;;;;15.27;3.25;;;;;;;;;;5076492;28;20023;-78